sensor_id;sensor_type;location;lat;lon;timestamp;temperature;humidity
5846;DHT22;2949;50.778;7.094;2023-04-08T00:01:00;8.30;99.90
5846;DHT22;2949;50.778;7.094;2023-04-08T00:03:26;8.30;99.90
5846;DHT22;2949;50.778;7.094;2023-04-08T00:05:51;8.30;99.90
5846;DHT22;2949;50.778;7.094;2023-04-08T00:08:17;8.30;99.90
5846;DHT22;2949;50.778;7.094;2023-04-08T00:10:42;8.30;99.90
5846;DHT22;2949;50.778;7.094;2023-04-08T00:13:08;8.30;99.90
5846;DHT22;2949;50.778;7.094;2023-04-08T00:15:35;8.30;99.90
5846;DHT22;2949;50.778;7.094;2023-04-08T00:18:01;8.30;99.90
5846;DHT22;2949;50.778;7.094;2023-04-08T00:20:26;8.30;99.90
5846;DHT22;2949;50.778;7.094;2023-04-08T00:22:52;8.30;99.90
5846;DHT22;2949;50.778;7.094;2023-04-08T00:25:17;8.30;99.90
5846;DHT22;2949;50.778;7.094;2023-04-08T00:27:43;8.30;99.90
5846;DHT22;2949;50.778;7.094;2023-04-08T00:30:08;8.30;99.90
5846;DHT22;2949;50.778;7.094;2023-04-08T00:32:34;8.30;99.90
5846;DHT22;2949;50.778;7.094;2023-04-08T00:35:00;8.30;99.90
5846;DHT22;2949;50.778;7.094;2023-04-08T00:37:27;8.30;99.90
5846;DHT22;2949;50.778;7.094;2023-04-08T00:39:52;8.30;99.90
5846;DHT22;2949;50.778;7.094;2023-04-08T00:42:18;8.30;99.90
5846;DHT22;2949;50.778;7.094;2023-04-08T00:44:44;8.30;99.90
5846;DHT22;2949;50.778;7.094;2023-04-08T00:47:14;8.30;99.90
5846;DHT22;2949;50.778;7.094;2023-04-08T00:49:41;8.30;99.90
5846;DHT22;2949;50.778;7.094;2023-04-08T00:52:07;8.30;99.90
5846;DHT22;2949;50.778;7.094;2023-04-08T00:54:32;8.30;99.90
5846;DHT22;2949;50.778;7.094;2023-04-08T00:56:58;8.30;99.90
5846;DHT22;2949;50.778;7.094;2023-04-08T00:59:28;8.30;99.90
5846;DHT22;2949;50.778;7.094;2023-04-08T01:02:03;8.30;99.90
5846;DHT22;2949;50.778;7.094;2023-04-08T01:04:52;8.40;99.90
5846;DHT22;2949;50.778;7.094;2023-04-08T01:07:30;8.30;99.90
5846;DHT22;2949;50.778;7.094;2023-04-08T01:10:00;8.30;99.90
5846;DHT22;2949;50.778;7.094;2023-04-08T01:12:29;8.30;99.90
5846;DHT22;2949;50.778;7.094;2023-04-08T01:15:07;8.30;99.90
5846;DHT22;2949;50.778;7.094;2023-04-08T01:17:33;8.30;99.90
5846;DHT22;2949;50.778;7.094;2023-04-08T01:20:01;8.30;99.90
5846;DHT22;2949;50.778;7.094;2023-04-08T01:25:19;8.30;99.90
5846;DHT22;2949;50.778;7.094;2023-04-08T01:27:47;8.30;99.90
5846;DHT22;2949;50.778;7.094;2023-04-08T01:30:16;8.30;99.90
5846;DHT22;2949;50.778;7.094;2023-04-08T01:32:43;8.30;99.90
5846;DHT22;2949;50.778;7.094;2023-04-08T01:35:09;8.30;99.90
5846;DHT22;2949;50.778;7.094;2023-04-08T01:37:36;8.30;99.90
5846;DHT22;2949;50.778;7.094;2023-04-08T01:40:04;8.30;99.90
5846;DHT22;2949;50.778;7.094;2023-04-08T01:42:32;8.30;99.90
5846;DHT22;2949;50.778;7.094;2023-04-08T01:44:59;8.30;99.90
5846;DHT22;2949;50.778;7.094;2023-04-08T01:47:27;8.30;99.90
5846;DHT22;2949;50.778;7.094;2023-04-08T01:49:53;8.30;99.90
5846;DHT22;2949;50.778;7.094;2023-04-08T01:52:20;8.30;99.90
5846;DHT22;2949;50.778;7.094;2023-04-08T01:54:46;8.30;99.90
5846;DHT22;2949;50.778;7.094;2023-04-08T01:57:16;8.30;99.90
5846;DHT22;2949;50.778;7.094;2023-04-08T01:59:47;8.30;99.90
5846;DHT22;2949;50.778;7.094;2023-04-08T02:02:16;8.30;99.90
5846;DHT22;2949;50.778;7.094;2023-04-08T02:04:44;8.30;99.90
5846;DHT22;2949;50.778;7.094;2023-04-08T02:07:10;8.30;99.90
5846;DHT22;2949;50.778;7.094;2023-04-08T02:09:36;8.30;99.90
5846;DHT22;2949;50.778;7.094;2023-04-08T02:12:02;8.20;99.90
5846;DHT22;2949;50.778;7.094;2023-04-08T02:14:27;8.20;99.90
5846;DHT22;2949;50.778;7.094;2023-04-08T02:17:12;8.20;99.90
5846;DHT22;2949;50.778;7.094;2023-04-08T02:19:59;8.20;99.90
5846;DHT22;2949;50.778;7.094;2023-04-08T02:22:37;8.20;99.90
5846;DHT22;2949;50.778;7.094;2023-04-08T02:25:07;8.20;99.90
5846;DHT22;2949;50.778;7.094;2023-04-08T02:27:35;8.20;99.90
5846;DHT22;2949;50.778;7.094;2023-04-08T02:30:03;8.10;99.90
5846;DHT22;2949;50.778;7.094;2023-04-08T02:32:32;8.10;99.90
5846;DHT22;2949;50.778;7.094;2023-04-08T02:34:59;8.10;99.90
5846;DHT22;2949;50.778;7.094;2023-04-08T02:37:27;8.10;99.90
5846;DHT22;2949;50.778;7.094;2023-04-08T02:39:53;8.10;99.90
5846;DHT22;2949;50.778;7.094;2023-04-08T02:42:18;8.00;99.90
5846;DHT22;2949;50.778;7.094;2023-04-08T02:44:44;8.00;99.90
5846;DHT22;2949;50.778;7.094;2023-04-08T02:47:10;8.00;99.90
5846;DHT22;2949;50.778;7.094;2023-04-08T02:49:35;8.00;99.90
5846;DHT22;2949;50.778;7.094;2023-04-08T02:52:01;8.00;99.90
5846;DHT22;2949;50.778;7.094;2023-04-08T02:54:26;8.00;99.90
5846;DHT22;2949;50.778;7.094;2023-04-08T02:56:52;8.00;99.90
5846;DHT22;2949;50.778;7.094;2023-04-08T02:59:17;8.00;99.90
5846;DHT22;2949;50.778;7.094;2023-04-08T03:01:43;8.00;99.90
5846;DHT22;2949;50.778;7.094;2023-04-08T03:04:09;8.00;99.90
5846;DHT22;2949;50.778;7.094;2023-04-08T03:06:34;8.00;99.90
5846;DHT22;2949;50.778;7.094;2023-04-08T03:09:00;8.00;99.90
5846;DHT22;2949;50.778;7.094;2023-04-08T03:11:25;8.00;99.90
5846;DHT22;2949;50.778;7.094;2023-04-08T03:13:51;8.00;99.90
5846;DHT22;2949;50.778;7.094;2023-04-08T03:16:16;8.00;99.90
5846;DHT22;2949;50.778;7.094;2023-04-08T03:18:42;8.00;99.90
5846;DHT22;2949;50.778;7.094;2023-04-08T03:21:07;8.00;99.90
5846;DHT22;2949;50.778;7.094;2023-04-08T03:23:33;8.00;99.90
5846;DHT22;2949;50.778;7.094;2023-04-08T03:25:58;8.00;99.90
5846;DHT22;2949;50.778;7.094;2023-04-08T03:28:24;8.00;99.90
5846;DHT22;2949;50.778;7.094;2023-04-08T03:30:49;8.00;99.90
5846;DHT22;2949;50.778;7.094;2023-04-08T03:33:15;8.00;99.90
5846;DHT22;2949;50.778;7.094;2023-04-08T03:35:41;8.00;99.90
5846;DHT22;2949;50.778;7.094;2023-04-08T03:38:06;8.00;99.90
5846;DHT22;2949;50.778;7.094;2023-04-08T03:40:32;8.00;99.90
5846;DHT22;2949;50.778;7.094;2023-04-08T03:42:58;8.00;99.90
5846;DHT22;2949;50.778;7.094;2023-04-08T03:45:23;8.00;99.90
5846;DHT22;2949;50.778;7.094;2023-04-08T03:47:49;8.00;99.90
5846;DHT22;2949;50.778;7.094;2023-04-08T03:50:14;8.00;99.90
5846;DHT22;2949;50.778;7.094;2023-04-08T03:52:40;8.00;99.90
5846;DHT22;2949;50.778;7.094;2023-04-08T03:55:06;8.00;99.90
5846;DHT22;2949;50.778;7.094;2023-04-08T03:57:31;8.00;99.90
5846;DHT22;2949;50.778;7.094;2023-04-08T03:59:57;8.00;99.90
5846;DHT22;2949;50.778;7.094;2023-04-08T04:02:23;8.00;99.90
5846;DHT22;2949;50.778;7.094;2023-04-08T04:04:48;8.00;99.90
5846;DHT22;2949;50.778;7.094;2023-04-08T04:07:14;8.00;99.90
5846;DHT22;2949;50.778;7.094;2023-04-08T04:09:40;8.00;99.90
5846;DHT22;2949;50.778;7.094;2023-04-08T04:12:06;8.00;99.90
5846;DHT22;2949;50.778;7.094;2023-04-08T04:14:31;8.00;99.90
5846;DHT22;2949;50.778;7.094;2023-04-08T04:16:57;8.00;99.90
5846;DHT22;2949;50.778;7.094;2023-04-08T04:19:22;8.00;99.90
5846;DHT22;2949;50.778;7.094;2023-04-08T04:21:48;8.00;99.90
5846;DHT22;2949;50.778;7.094;2023-04-08T04:24:13;8.00;99.90
5846;DHT22;2949;50.778;7.094;2023-04-08T04:26:42;8.00;99.90
5846;DHT22;2949;50.778;7.094;2023-04-08T04:29:07;7.90;99.90
5846;DHT22;2949;50.778;7.094;2023-04-08T04:31:33;8.00;99.90
5846;DHT22;2949;50.778;7.094;2023-04-08T04:33:58;8.00;99.90
5846;DHT22;2949;50.778;7.094;2023-04-08T04:36:24;7.90;99.90
5846;DHT22;2949;50.778;7.094;2023-04-08T04:38:49;7.90;99.90
5846;DHT22;2949;50.778;7.094;2023-04-08T04:41:16;7.90;99.90
5846;DHT22;2949;50.778;7.094;2023-04-08T04:43:41;7.90;99.90
5846;DHT22;2949;50.778;7.094;2023-04-08T04:46:07;8.00;99.90
5846;DHT22;2949;50.778;7.094;2023-04-08T04:48:34;7.90;99.90
5846;DHT22;2949;50.778;7.094;2023-04-08T04:51:00;7.90;99.90
5846;DHT22;2949;50.778;7.094;2023-04-08T04:53:27;7.90;99.90
5846;DHT22;2949;50.778;7.094;2023-04-08T04:55:53;7.90;99.90
5846;DHT22;2949;50.778;7.094;2023-04-08T04:58:18;8.00;99.90
5846;DHT22;2949;50.778;7.094;2023-04-08T05:00:44;7.90;99.90
5846;DHT22;2949;50.778;7.094;2023-04-08T05:03:11;8.00;99.90
5846;DHT22;2949;50.778;7.094;2023-04-08T05:05:36;8.00;99.90
5846;DHT22;2949;50.778;7.094;2023-04-08T05:08:02;8.00;99.90
5846;DHT22;2949;50.778;7.094;2023-04-08T05:10:28;8.00;99.90
5846;DHT22;2949;50.778;7.094;2023-04-08T05:12:53;8.00;99.90
5846;DHT22;2949;50.778;7.094;2023-04-08T05:15:19;8.00;99.90
5846;DHT22;2949;50.778;7.094;2023-04-08T05:17:45;8.00;99.90
5846;DHT22;2949;50.778;7.094;2023-04-08T05:20:11;8.00;99.90
5846;DHT22;2949;50.778;7.094;2023-04-08T05:22:36;8.10;99.90
5846;DHT22;2949;50.778;7.094;2023-04-08T05:25:02;8.10;99.90
5846;DHT22;2949;50.778;7.094;2023-04-08T05:27:28;8.10;99.90
5846;DHT22;2949;50.778;7.094;2023-04-08T05:29:53;8.20;99.90
5846;DHT22;2949;50.778;7.094;2023-04-08T05:32:19;8.20;99.90
5846;DHT22;2949;50.778;7.094;2023-04-08T05:34:44;8.20;99.90
5846;DHT22;2949;50.778;7.094;2023-04-08T05:37:10;8.20;99.90
5846;DHT22;2949;50.778;7.094;2023-04-08T05:39:35;8.30;99.90
5846;DHT22;2949;50.778;7.094;2023-04-08T05:42:01;8.30;99.90
5846;DHT22;2949;50.778;7.094;2023-04-08T05:44:27;8.40;99.90
5846;DHT22;2949;50.778;7.094;2023-04-08T05:46:52;8.50;99.90
5846;DHT22;2949;50.778;7.094;2023-04-08T05:49:18;8.50;99.90
5846;DHT22;2949;50.778;7.094;2023-04-08T05:51:43;8.60;99.90
5846;DHT22;2949;50.778;7.094;2023-04-08T05:54:09;8.70;99.90
5846;DHT22;2949;50.778;7.094;2023-04-08T05:56:34;8.70;99.90
5846;DHT22;2949;50.778;7.094;2023-04-08T05:59:00;8.80;99.90
5846;DHT22;2949;50.778;7.094;2023-04-08T06:01:26;8.80;99.90
5846;DHT22;2949;50.778;7.094;2023-04-08T06:03:51;8.70;99.90
5846;DHT22;2949;50.778;7.094;2023-04-08T06:06:17;8.70;99.90
5846;DHT22;2949;50.778;7.094;2023-04-08T06:08:43;8.70;99.90
5846;DHT22;2949;50.778;7.094;2023-04-08T06:11:08;8.70;99.90
5846;DHT22;2949;50.778;7.094;2023-04-08T06:13:34;8.70;99.90
5846;DHT22;2949;50.778;7.094;2023-04-08T06:16:12;8.60;99.90
5846;DHT22;2949;50.778;7.094;2023-04-08T06:18:38;8.60;99.90
5846;DHT22;2949;50.778;7.094;2023-04-08T06:21:04;8.70;99.90
5846;DHT22;2949;50.778;7.094;2023-04-08T06:23:30;8.70;99.90
5846;DHT22;2949;50.778;7.094;2023-04-08T06:25:55;8.80;99.90
5846;DHT22;2949;50.778;7.094;2023-04-08T06:28:21;8.80;99.90
5846;DHT22;2949;50.778;7.094;2023-04-08T06:30:47;8.80;99.90
5846;DHT22;2949;50.778;7.094;2023-04-08T06:33:12;8.90;99.90
5846;DHT22;2949;50.778;7.094;2023-04-08T06:35:38;9.00;99.90
5846;DHT22;2949;50.778;7.094;2023-04-08T06:38:04;9.00;99.90
5846;DHT22;2949;50.778;7.094;2023-04-08T06:40:29;9.00;99.90
5846;DHT22;2949;50.778;7.094;2023-04-08T06:42:55;9.00;99.90
5846;DHT22;2949;50.778;7.094;2023-04-08T06:45:20;9.10;99.90
5846;DHT22;2949;50.778;7.094;2023-04-08T06:47:46;9.20;99.90
5846;DHT22;2949;50.778;7.094;2023-04-08T06:50:12;9.30;99.90
5846;DHT22;2949;50.778;7.094;2023-04-08T06:52:37;9.40;99.90
5846;DHT22;2949;50.778;7.094;2023-04-08T06:55:03;9.50;99.90
5846;DHT22;2949;50.778;7.094;2023-04-08T06:57:28;9.60;99.90
5846;DHT22;2949;50.778;7.094;2023-04-08T06:59:54;9.80;99.90
5846;DHT22;2949;50.778;7.094;2023-04-08T07:02:20;9.90;99.90
5846;DHT22;2949;50.778;7.094;2023-04-08T07:04:47;10.00;99.90
5846;DHT22;2949;50.778;7.094;2023-04-08T07:07:12;10.20;99.90
5846;DHT22;2949;50.778;7.094;2023-04-08T07:09:38;10.30;99.90
5846;DHT22;2949;50.778;7.094;2023-04-08T07:12:04;10.50;99.90
5846;DHT22;2949;50.778;7.094;2023-04-08T07:14:30;10.70;99.90
5846;DHT22;2949;50.778;7.094;2023-04-08T07:16:55;10.70;99.90
5846;DHT22;2949;50.778;7.094;2023-04-08T07:19:21;10.80;99.90
5846;DHT22;2949;50.778;7.094;2023-04-08T07:21:48;10.80;99.90
5846;DHT22;2949;50.778;7.094;2023-04-08T07:24:14;10.70;99.90
5846;DHT22;2949;50.778;7.094;2023-04-08T07:26:40;10.70;99.90
5846;DHT22;2949;50.778;7.094;2023-04-08T07:29:05;10.70;99.90
5846;DHT22;2949;50.778;7.094;2023-04-08T07:31:31;10.80;99.90
5846;DHT22;2949;50.778;7.094;2023-04-08T07:33:57;10.90;99.90
5846;DHT22;2949;50.778;7.094;2023-04-08T07:36:23;11.10;99.90
5846;DHT22;2949;50.778;7.094;2023-04-08T07:38:48;11.40;99.90
5846;DHT22;2949;50.778;7.094;2023-04-08T07:41:14;11.70;99.90
5846;DHT22;2949;50.778;7.094;2023-04-08T07:43:40;12.10;99.90
5846;DHT22;2949;50.778;7.094;2023-04-08T07:46:05;12.40;99.90
5846;DHT22;2949;50.778;7.094;2023-04-08T07:48:33;12.60;99.90
5846;DHT22;2949;50.778;7.094;2023-04-08T07:51:06;13.20;99.90
5846;DHT22;2949;50.778;7.094;2023-04-08T07:53:32;14.90;99.90
5846;DHT22;2949;50.778;7.094;2023-04-08T07:55:58;16.90;99.90
5846;DHT22;2949;50.778;7.094;2023-04-08T07:58:24;17.20;99.90
5846;DHT22;2949;50.778;7.094;2023-04-08T08:00:50;16.80;99.90
5846;DHT22;2949;50.778;7.094;2023-04-08T08:03:15;18.20;99.90
5846;DHT22;2949;50.778;7.094;2023-04-08T08:05:41;17.80;99.90
5846;DHT22;2949;50.778;7.094;2023-04-08T08:08:07;16.30;99.90
5846;DHT22;2949;50.778;7.094;2023-04-08T08:10:38;15.10;99.90
5846;DHT22;2949;50.778;7.094;2023-04-08T08:13:05;14.10;99.90
5846;DHT22;2949;50.778;7.094;2023-04-08T08:15:31;13.40;99.90
5846;DHT22;2949;50.778;7.094;2023-04-08T08:17:57;13.00;99.90
5846;DHT22;2949;50.778;7.094;2023-04-08T08:20:22;12.90;99.90
5846;DHT22;2949;50.778;7.094;2023-04-08T08:22:48;12.70;99.90
5846;DHT22;2949;50.778;7.094;2023-04-08T08:25:13;12.70;99.90
5846;DHT22;2949;50.778;7.094;2023-04-08T08:27:39;12.60;99.90
5846;DHT22;2949;50.778;7.094;2023-04-08T08:30:07;12.40;99.90
5846;DHT22;2949;50.778;7.094;2023-04-08T08:32:33;12.20;99.90
5846;DHT22;2949;50.778;7.094;2023-04-08T08:34:59;12.30;99.90
5846;DHT22;2949;50.778;7.094;2023-04-08T08:37:24;12.20;99.90
5846;DHT22;2949;50.778;7.094;2023-04-08T08:39:50;12.20;99.90
5846;DHT22;2949;50.778;7.094;2023-04-08T08:42:23;12.20;99.90
5846;DHT22;2949;50.778;7.094;2023-04-08T08:44:49;12.30;99.90
5846;DHT22;2949;50.778;7.094;2023-04-08T08:47:15;12.40;99.90
5846;DHT22;2949;50.778;7.094;2023-04-08T08:49:41;12.50;99.90
5846;DHT22;2949;50.778;7.094;2023-04-08T08:52:07;12.60;99.90
5846;DHT22;2949;50.778;7.094;2023-04-08T08:54:32;12.50;99.90
5846;DHT22;2949;50.778;7.094;2023-04-08T08:56:58;12.30;99.90
5846;DHT22;2949;50.778;7.094;2023-04-08T08:59:24;12.40;99.90
5846;DHT22;2949;50.778;7.094;2023-04-08T09:01:49;12.20;99.90
5846;DHT22;2949;50.778;7.094;2023-04-08T09:04:17;12.10;99.90
5846;DHT22;2949;50.778;7.094;2023-04-08T09:06:45;12.20;99.90
5846;DHT22;2949;50.778;7.094;2023-04-08T09:09:11;12.40;99.90
5846;DHT22;2949;50.778;7.094;2023-04-08T09:11:42;12.60;99.90
5846;DHT22;2949;50.778;7.094;2023-04-08T09:14:24;12.90;99.90
5846;DHT22;2949;50.778;7.094;2023-04-08T09:16:50;13.30;99.90
5846;DHT22;2949;50.778;7.094;2023-04-08T09:19:17;13.70;99.90
5846;DHT22;2949;50.778;7.094;2023-04-08T09:21:42;13.90;99.90
5846;DHT22;2949;50.778;7.094;2023-04-08T09:24:09;13.90;99.90
5846;DHT22;2949;50.778;7.094;2023-04-08T09:26:51;13.80;99.90
5846;DHT22;2949;50.778;7.094;2023-04-08T09:29:16;13.70;99.90
5846;DHT22;2949;50.778;7.094;2023-04-08T09:31:42;13.70;99.90
5846;DHT22;2949;50.778;7.094;2023-04-08T09:34:15;13.40;99.90
5846;DHT22;2949;50.778;7.094;2023-04-08T09:36:48;13.20;99.90
5846;DHT22;2949;50.778;7.094;2023-04-08T09:39:14;13.30;99.90
5846;DHT22;2949;50.778;7.094;2023-04-08T09:41:41;13.40;99.90
5846;DHT22;2949;50.778;7.094;2023-04-08T09:44:08;13.60;99.90
5846;DHT22;2949;50.778;7.094;2023-04-08T09:49:26;13.60;99.90
5846;DHT22;2949;50.778;7.094;2023-04-08T09:52:26;13.50;99.90
5846;DHT22;2949;50.778;7.094;2023-04-08T09:55:02;13.40;99.90
5846;DHT22;2949;50.778;7.094;2023-04-08T10:00:13;13.60;99.90
5846;DHT22;2949;50.778;7.094;2023-04-08T10:03:09;13.60;99.90
5846;DHT22;2949;50.778;7.094;2023-04-08T10:05:37;13.60;99.90
5846;DHT22;2949;50.778;7.094;2023-04-08T10:08:04;13.60;99.90
5846;DHT22;2949;50.778;7.094;2023-04-08T10:10:30;13.60;99.90
5846;DHT22;2949;50.778;7.094;2023-04-08T10:12:57;13.70;99.90
5846;DHT22;2949;50.778;7.094;2023-04-08T10:15:24;13.80;99.90
5846;DHT22;2949;50.778;7.094;2023-04-08T10:17:51;14.00;99.90
5846;DHT22;2949;50.778;7.094;2023-04-08T10:23:07;14.50;99.90
5846;DHT22;2949;50.778;7.094;2023-04-08T10:25:36;14.90;99.90
5846;DHT22;2949;50.778;7.094;2023-04-08T10:35:58;14.20;99.90
5846;DHT22;2949;50.778;7.094;2023-04-08T10:38:24;14.00;99.90
5846;DHT22;2949;50.778;7.094;2023-04-08T10:40:49;13.80;99.90
5846;DHT22;2949;50.778;7.094;2023-04-08T10:43:16;13.60;99.90
5846;DHT22;2949;50.778;7.094;2023-04-08T10:45:42;13.60;99.90
5846;DHT22;2949;50.778;7.094;2023-04-08T10:50:37;13.50;99.90
5846;DHT22;2949;50.778;7.094;2023-04-08T10:53:03;13.40;99.90
5846;DHT22;2949;50.778;7.094;2023-04-08T10:55:29;13.50;99.90
5846;DHT22;2949;50.778;7.094;2023-04-08T10:58:07;13.60;99.90
5846;DHT22;2949;50.778;7.094;2023-04-08T11:00:35;13.70;99.90
5846;DHT22;2949;50.778;7.094;2023-04-08T11:03:08;13.80;99.90
5846;DHT22;2949;50.778;7.094;2023-04-08T11:05:35;14.00;99.90
5846;DHT22;2949;50.778;7.094;2023-04-08T11:08:02;14.20;99.90
5846;DHT22;2949;50.778;7.094;2023-04-08T11:10:28;14.40;99.90
5846;DHT22;2949;50.778;7.094;2023-04-08T11:12:54;14.50;99.90
5846;DHT22;2949;50.778;7.094;2023-04-08T11:15:21;14.60;99.90
5846;DHT22;2949;50.778;7.094;2023-04-08T11:17:47;14.80;99.90
5846;DHT22;2949;50.778;7.094;2023-04-08T11:20:13;14.70;99.90
5846;DHT22;2949;50.778;7.094;2023-04-08T11:22:39;14.80;99.90
5846;DHT22;2949;50.778;7.094;2023-04-08T11:25:07;14.90;99.90
5846;DHT22;2949;50.778;7.094;2023-04-08T11:27:34;14.90;99.90
5846;DHT22;2949;50.778;7.094;2023-04-08T11:30:01;15.20;99.90
5846;DHT22;2949;50.778;7.094;2023-04-08T11:32:27;15.30;99.90
5846;DHT22;2949;50.778;7.094;2023-04-08T11:34:53;15.30;99.90
5846;DHT22;2949;50.778;7.094;2023-04-08T11:37:19;15.30;99.90
5846;DHT22;2949;50.778;7.094;2023-04-08T11:39:45;15.50;99.90
5846;DHT22;2949;50.778;7.094;2023-04-08T11:42:26;15.30;99.90
5846;DHT22;2949;50.778;7.094;2023-04-08T11:44:52;14.90;99.90
5846;DHT22;2949;50.778;7.094;2023-04-08T11:47:18;14.30;99.90
5846;DHT22;2949;50.778;7.094;2023-04-08T11:49:45;13.90;99.90
5846;DHT22;2949;50.778;7.094;2023-04-08T11:52:11;13.60;99.90
5846;DHT22;2949;50.778;7.094;2023-04-08T11:54:40;13.30;99.90
5846;DHT22;2949;50.778;7.094;2023-04-08T11:57:06;13.00;99.90
5846;DHT22;2949;50.778;7.094;2023-04-08T11:59:34;12.80;99.90
5846;DHT22;2949;50.778;7.094;2023-04-08T12:02:01;12.70;99.90
5846;DHT22;2949;50.778;7.094;2023-04-08T12:04:26;12.50;99.90
5846;DHT22;2949;50.778;7.094;2023-04-08T12:06:52;12.50;99.90
5846;DHT22;2949;50.778;7.094;2023-04-08T12:09:17;12.50;99.90
5846;DHT22;2949;50.778;7.094;2023-04-08T12:11:43;12.50;99.90
5846;DHT22;2949;50.778;7.094;2023-04-08T12:14:09;12.60;99.90
5846;DHT22;2949;50.778;7.094;2023-04-08T12:16:34;12.60;99.90
5846;DHT22;2949;50.778;7.094;2023-04-08T12:19:00;12.60;99.90
5846;DHT22;2949;50.778;7.094;2023-04-08T12:21:26;12.60;99.90
5846;DHT22;2949;50.778;7.094;2023-04-08T12:23:52;12.70;99.90
5846;DHT22;2949;50.778;7.094;2023-04-08T12:26:18;12.80;99.90
5846;DHT22;2949;50.778;7.094;2023-04-08T12:28:44;12.90;99.90
5846;DHT22;2949;50.778;7.094;2023-04-08T12:31:10;13.10;99.90
5846;DHT22;2949;50.778;7.094;2023-04-08T12:33:36;13.20;99.90
5846;DHT22;2949;50.778;7.094;2023-04-08T12:36:01;13.30;99.90
5846;DHT22;2949;50.778;7.094;2023-04-08T12:38:27;13.30;99.90
5846;DHT22;2949;50.778;7.094;2023-04-08T12:40:53;13.30;99.90
5846;DHT22;2949;50.778;7.094;2023-04-08T12:43:19;13.30;99.90
5846;DHT22;2949;50.778;7.094;2023-04-08T12:45:45;13.40;99.90
5846;DHT22;2949;50.778;7.094;2023-04-08T12:48:11;13.40;99.90
5846;DHT22;2949;50.778;7.094;2023-04-08T12:50:36;13.40;99.90
5846;DHT22;2949;50.778;7.094;2023-04-08T12:53:02;13.50;99.90
5846;DHT22;2949;50.778;7.094;2023-04-08T12:55:27;13.70;99.90
5846;DHT22;2949;50.778;7.094;2023-04-08T12:57:53;13.90;99.90
5846;DHT22;2949;50.778;7.094;2023-04-08T13:00:18;14.10;99.90
5846;DHT22;2949;50.778;7.094;2023-04-08T13:02:45;14.30;99.90
5846;DHT22;2949;50.778;7.094;2023-04-08T13:05:11;14.60;99.90
5846;DHT22;2949;50.778;7.094;2023-04-08T13:07:36;14.90;99.90
5846;DHT22;2949;50.778;7.094;2023-04-08T13:10:02;15.00;99.90
5846;DHT22;2949;50.778;7.094;2023-04-08T13:12:28;14.90;99.90
5846;DHT22;2949;50.778;7.094;2023-04-08T13:14:54;14.70;99.90
5846;DHT22;2949;50.778;7.094;2023-04-08T13:17:20;14.50;99.90
5846;DHT22;2949;50.778;7.094;2023-04-08T13:19:45;14.40;99.90
5846;DHT22;2949;50.778;7.094;2023-04-08T13:22:12;14.40;99.90
5846;DHT22;2949;50.778;7.094;2023-04-08T13:24:39;14.50;99.90
5846;DHT22;2949;50.778;7.094;2023-04-08T13:27:05;14.70;99.90
5846;DHT22;2949;50.778;7.094;2023-04-08T13:29:30;14.70;99.90
5846;DHT22;2949;50.778;7.094;2023-04-08T13:31:56;14.70;99.90
5846;DHT22;2949;50.778;7.094;2023-04-08T13:34:21;14.60;99.90
5846;DHT22;2949;50.778;7.094;2023-04-08T13:36:46;14.60;99.90
5846;DHT22;2949;50.778;7.094;2023-04-08T13:39:12;14.50;99.90
5846;DHT22;2949;50.778;7.094;2023-04-08T13:41:37;14.40;99.90
5846;DHT22;2949;50.778;7.094;2023-04-08T13:44:03;14.20;99.90
5846;DHT22;2949;50.778;7.094;2023-04-08T13:46:29;14.20;99.90
5846;DHT22;2949;50.778;7.094;2023-04-08T13:48:55;14.10;99.90
5846;DHT22;2949;50.778;7.094;2023-04-08T13:51:20;14.20;99.90
5846;DHT22;2949;50.778;7.094;2023-04-08T13:53:46;14.40;99.90
5846;DHT22;2949;50.778;7.094;2023-04-08T13:56:11;14.80;99.90
5846;DHT22;2949;50.778;7.094;2023-04-08T13:58:37;15.00;99.90
5846;DHT22;2949;50.778;7.094;2023-04-08T14:01:02;14.90;99.90
5846;DHT22;2949;50.778;7.094;2023-04-08T14:03:28;14.50;99.90
5846;DHT22;2949;50.778;7.094;2023-04-08T14:05:54;14.40;99.90
5846;DHT22;2949;50.778;7.094;2023-04-08T14:08:19;14.30;99.90
5846;DHT22;2949;50.778;7.094;2023-04-08T14:10:51;14.20;99.90
5846;DHT22;2949;50.778;7.094;2023-04-08T14:13:16;14.20;99.90
5846;DHT22;2949;50.778;7.094;2023-04-08T14:15:42;14.30;99.90
5846;DHT22;2949;50.778;7.094;2023-04-08T14:18:07;14.40;99.90
5846;DHT22;2949;50.778;7.094;2023-04-08T14:20:33;14.20;99.90
5846;DHT22;2949;50.778;7.094;2023-04-08T14:23:00;14.10;99.90
5846;DHT22;2949;50.778;7.094;2023-04-08T14:25:25;14.40;99.90
5846;DHT22;2949;50.778;7.094;2023-04-08T14:27:51;14.50;99.90
5846;DHT22;2949;50.778;7.094;2023-04-08T14:30:17;14.70;99.90
5846;DHT22;2949;50.778;7.094;2023-04-08T14:32:43;14.80;99.90
5846;DHT22;2949;50.778;7.094;2023-04-08T14:35:08;14.80;99.90
5846;DHT22;2949;50.778;7.094;2023-04-08T14:37:34;14.80;99.90
5846;DHT22;2949;50.778;7.094;2023-04-08T14:40:02;14.80;99.90
5846;DHT22;2949;50.778;7.094;2023-04-08T14:42:28;14.70;99.90
5846;DHT22;2949;50.778;7.094;2023-04-08T14:44:54;14.70;99.90
5846;DHT22;2949;50.778;7.094;2023-04-08T14:47:22;14.70;99.90
5846;DHT22;2949;50.778;7.094;2023-04-08T14:49:47;14.80;99.90
5846;DHT22;2949;50.778;7.094;2023-04-08T14:52:13;14.90;99.90
5846;DHT22;2949;50.778;7.094;2023-04-08T14:54:38;15.00;99.90
5846;DHT22;2949;50.778;7.094;2023-04-08T14:57:05;15.00;99.90
5846;DHT22;2949;50.778;7.094;2023-04-08T14:59:31;14.90;99.90
5846;DHT22;2949;50.778;7.094;2023-04-08T15:01:56;14.90;99.90
5846;DHT22;2949;50.778;7.094;2023-04-08T15:04:22;14.60;99.90
5846;DHT22;2949;50.778;7.094;2023-04-08T15:06:47;14.30;99.90
5846;DHT22;2949;50.778;7.094;2023-04-08T15:09:13;14.20;99.90
5846;DHT22;2949;50.778;7.094;2023-04-08T15:11:39;14.00;99.90
5846;DHT22;2949;50.778;7.094;2023-04-08T15:14:04;13.90;99.90
5846;DHT22;2949;50.778;7.094;2023-04-08T15:16:30;13.70;99.90
5846;DHT22;2949;50.778;7.094;2023-04-08T15:18:55;13.40;99.90
5846;DHT22;2949;50.778;7.094;2023-04-08T15:21:24;13.10;99.90
5846;DHT22;2949;50.778;7.094;2023-04-08T15:23:51;13.00;99.90
5846;DHT22;2949;50.778;7.094;2023-04-08T15:26:16;12.90;99.90
5846;DHT22;2949;50.778;7.094;2023-04-08T15:28:42;12.90;99.90
5846;DHT22;2949;50.778;7.094;2023-04-08T15:31:07;12.80;99.90
5846;DHT22;2949;50.778;7.094;2023-04-08T15:33:33;12.90;99.90
5846;DHT22;2949;50.778;7.094;2023-04-08T15:35:59;13.10;99.90
5846;DHT22;2949;50.778;7.094;2023-04-08T15:38:29;13.00;99.90
5846;DHT22;2949;50.778;7.094;2023-04-08T15:40:55;13.10;99.90
5846;DHT22;2949;50.778;7.094;2023-04-08T15:43:20;13.20;99.90
5846;DHT22;2949;50.778;7.094;2023-04-08T15:45:46;13.20;99.90
5846;DHT22;2949;50.778;7.094;2023-04-08T15:48:12;13.30;99.90
5846;DHT22;2949;50.778;7.094;2023-04-08T15:50:38;13.30;99.90
5846;DHT22;2949;50.778;7.094;2023-04-08T15:53:03;13.30;99.90
5846;DHT22;2949;50.778;7.094;2023-04-08T15:55:29;13.30;99.90
5846;DHT22;2949;50.778;7.094;2023-04-08T15:57:55;13.30;99.90
5846;DHT22;2949;50.778;7.094;2023-04-08T16:02:48;13.30;99.90
5846;DHT22;2949;50.778;7.094;2023-04-08T16:05:14;13.30;99.90
5846;DHT22;2949;50.778;7.094;2023-04-08T16:07:40;13.20;99.90
5846;DHT22;2949;50.778;7.094;2023-04-08T16:10:07;13.20;99.90
5846;DHT22;2949;50.778;7.094;2023-04-08T16:12:33;13.10;99.90
5846;DHT22;2949;50.778;7.094;2023-04-08T16:14:59;13.00;99.90
5846;DHT22;2949;50.778;7.094;2023-04-08T16:17:25;12.90;99.90
5846;DHT22;2949;50.778;7.094;2023-04-08T16:19:51;12.90;99.90
5846;DHT22;2949;50.778;7.094;2023-04-08T16:22:17;12.80;99.90
5846;DHT22;2949;50.778;7.094;2023-04-08T16:24:43;12.80;99.90
5846;DHT22;2949;50.778;7.094;2023-04-08T16:27:08;12.80;99.90
5846;DHT22;2949;50.778;7.094;2023-04-08T16:29:34;12.90;99.90